Nearby METAR Reports

 

KEVV - Evansville, Indiana, USA
Distance from station: NNE 4mi, 7km
Updated: Mon, 16-Jul-2018 4:54am CDT
Mist, Overcast
Mist, Overcast
 Wind from calm
Wind: Calm
Temperature: 73°F , 23°C
Dew Point: 73°F , 23°C
Humidity: 100%
Barometer: 29.96 inHg , 1014.6 hPa
Summary: Mist
Clouds: Overcast
Visibility: 5 miles , 8 km
Cloud details: Overcast 400 ft
2018/07/16 09:54 KEVV 160954Z AUTO 00000KT 5SM BR OVC004 23/23 A2996 RMK AO2 CIG 002V006 SLP141 T02280228 $
KEHR - Henderson City, Kentucky, USA
Distance from station: SSW 14mi, 22km
Updated: Mon, 16-Jul-2018 5:47am CDT
Overcast
Overcast
 Wind from calm
Wind: Calm
Temperature: 73°F , 23°C
Dew Point: 72°F , 22°C
Humidity: 94%
Barometer: 29.97 inHg , 1014.9 hPa
Clouds: Overcast
Visibility: 9 miles , 14 km
Cloud details: Mostly cloudy 600 ft
Overcast 1300 ft
2018/07/16 10:47 KEHR 161047Z AUTO 00000KT 9SM BKN006 OVC013 23/22 A2997 RMK AO2 CIG 003V007
 
KOWB - Owensboro/Davies, Kentucky, USA
Distance from station: SE 29mi, 46km
Updated: Mon, 16-Jul-2018 5:34am CDT
Overcast
Overcast
 Wind from SSW
Wind: SSW 5 mph , 7 km/h
Temperature: 73°F , 23°C
Dew Point: 72°F , 22°C
Humidity: 94%
Barometer: 29.97 inHg , 1014.9 hPa
Clouds: Overcast
Visibility: 9 miles , 14 km
Cloud details: Overcast 600 ft
2018/07/16 10:34 KOWB 161034Z AUTO 20004KT 9SM OVC006 23/22 A2997 RMK AO2 CIG 003V009
KCUL - Carmi Muni, Illinois, USA
Distance from station: W 31mi, 50km
Updated: Mon, 16-Jul-2018 5:33am CDT
Mist, Overcast
Mist, Overcast
 Wind from calm
Wind: Calm
Temperature: 73°F , 23°C
Dew Point: 73°F , 23°C
Humidity: 100%
Barometer: 29.96 inHg , 1014.6 hPa
Summary: Mist
Clouds: Overcast
Visibility: 4 miles , 6 km
Cloud details: Overcast 400 ft
2018/07/16 10:33 KCUL 161033Z AUTO 00000KT 4SM BR OVC004 23/23 A2996 RMK AO2
 
KHNB - Huntingburg, Indiana, USA
Distance from station: ENE 37mi, 60km
Updated: Mon, 16-Jul-2018 5:49am CDT
Mist, Overcast
Mist, Overcast
 Wind from SSE
Wind: SSE 3 mph , 6 km/h
Temperature: 72°F , 22°C
Dew Point: 72°F , 22°C
Humidity: 100%
Barometer: 29.98 inHg , 1015.2 hPa
Summary: Mist
Clouds: Overcast
Visibility: 1 3/4 miles , 5 km
Cloud details: Overcast 700 ft
2018/07/16 10:49 KHNB 161049Z AUTO 16003KT 1 3/4SM BR OVC007 22/22 A2998 RMK AO2
KAJG - Mount Carmel, Illinois, USA
Distance from station: NNW 43mi, 69km
Updated: Mon, 16-Jul-2018 5:35am CDT
Overcast
Overcast
 Wind from calm
Wind: Calm
Temperature: 73°F , 23°C
Dew Point: 72°F , 22°C
Humidity: 94%
Barometer: 29.96 inHg , 1014.6 hPa
Clouds: Overcast
Visibility: 10 miles , 16 km
Cloud details: Overcast 1000 ft
2018/07/16 10:35 KAJG 161035Z AUTO 00000KT 10SM OVC010 23/22 A2996 RMK AO2 T02270223
 
K2I0 - Madisonville, Kentucky, USA
Distance from station: S 45mi, 73km
Updated: Mon, 16-Jul-2018 5:35am CDT
Overcast
Overcast
 Wind from SSW
Wind: SSW 3 mph , 6 km/h
Temperature: 73°F , 23°C
Dew Point: 73°F , 23°C
Humidity: 100%
Barometer: 29.97 inHg , 1014.9 hPa
Clouds: Overcast
Visibility: 10 miles , 16 km
Cloud details: Overcast 3000 ft
2018/07/16 10:35 K2I0 161035Z AUTO 20003KT 10SM OVC030 23/23 A2997 RMK AO2 T02250225
KLWV - Lawrenceville, Illinois, USA
Distance from station: N 53mi, 86km
Updated: Mon, 16-Jul-2018 4:53am CDT
Overcast
Overcast
 
Temperature: 73°F , 23°C
Dew Point: 72°F , 22°C
Humidity: 94%
Barometer: 29.95 inHg , 1014.2 hPa
Clouds: Overcast
Visibility: 8 miles , 13 km
Cloud details: Overcast 1300 ft
2018/07/16 09:53 KLWV 160953Z AUTO 8SM OVC013 23/22 A2995 RMK AO2 SLP139 T02330217
 
KFWC - Fairfield, Illinois, USA
Distance from station: WNW 54mi, 87km
Updated: Sat, 14-Jul-2018 3:55pm CDT
NOT Current
Heavy thunderstorm, Rain, Overcast
Heavy thunderstorm, Rain, Overcast
 Wind from NNW
Wind: NNW 10 mph , 17 km/h, Gust: 16 mph , 26 km/h
Temperature: 72°F , 22°C
Dew Point: 72°F , 22°C
Humidity: 100%
Barometer: 30.04 inHg , 1017.3 hPa
Summary: Heavy thunderstorm, Rain
Clouds: Overcast
Visibility: 1 3/4 miles , 5 km
Cloud details: Mostly cloudy 600 ft
Mostly cloudy 1100 ft
Overcast 1700 ft
2018/07/14 20:55 KFWC 142055Z AUTO 33009G14KT 1 3/4SM +TSRA BKN006 BKN011 OVC017 22/22 A3004 RMK AO1 LTG DSNT ALQS T02210221
KHSB - Harrisburg, Illinois, USA
Distance from station: WSW 56mi, 89km
Updated: Mon, 16-Jul-2018 5:35am CDT
Fog, Overcast
Fog, Overcast
 Wind from calm
Wind: Calm
Temperature: 72°F , 22°C
Dew Point: 72°F , 22°C
Humidity: 100%
Barometer: 29.96 inHg , 1014.6 hPa
Summary: Fog
Clouds: Overcast
Visibility: 1/2 mile , 2 km
Cloud details: Mostly cloudy 200 ft
Overcast 8000 ft
2018/07/16 10:35 KHSB 161035Z AUTO 00000KT 1/2SM FG BKN002 OVC080 22/22 A2996 RMK AO2 T02180218
 
KOLY - Olney-Noble, Illinois, USA
Distance from station: NW 60mi, 97km
Updated: Mon, 16-Jul-2018 5:30am CDT
Mist, Overcast
Mist, Overcast
 Wind from WSW
Wind: WSW 3 mph , 6 km/h
Temperature: 73°F , 23°C
Dew Point: 72°F , 22°C
Humidity: 94%
Barometer: 29.97 inHg , 1014.9 hPa
Summary: Mist
Clouds: Overcast
Visibility: 4 miles , 6 km
Cloud details: Overcast 500 ft
2018/07/16 10:30 KOLY 161030Z AUTO 25003KT 4SM BR OVC005 23/22 A2997 RMK AO2 T02260215
KFOA - Flora, Illinois, USA
Distance from station: NW 67mi, 108km
Updated: Mon, 16-Jul-2018 5:35am CDT
Mist, Mostly cloudy
Mist, Mostly cloudy
 Wind from calm
Wind: Calm
Temperature: 75°F , 24°C
Dew Point: 73°F , 23°C
Humidity: 94%
Barometer: 29.96 inHg , 1014.6 hPa
Summary: Mist
Clouds: Mostly cloudy
Visibility: 4 miles , 6 km
Cloud details: Mostly cloudy 500 ft
Mostly cloudy 8000 ft
2018/07/16 10:35 KFOA 161035Z AUTO 00000KT 4SM BR BKN005 BKN080 24/23 A2996 RMK AO2 T02350230
 
KRSV - Robinson Muni, Illinois, USA
Distance from station: N 71mi, 114km
Updated: Mon, 16-Jul-2018 5:35am CDT
Overcast
Overcast
 Wind from calm
Wind: Calm
Temperature: 73°F , 23°C
Dew Point: 73°F , 23°C
Humidity: 100%
Barometer: 29.97 inHg , 1014.9 hPa
Clouds: Overcast
Visibility: 7 miles , 11 km
Cloud details: Overcast 700 ft
2018/07/16 10:35 KRSV 161035Z AUTO 00000KT 7SM OVC007 23/23 A2997 RMK AO2 T02260226
KMVN - Mount Vernon, Illinois, USA
Distance from station: WNW 75mi, 120km
Updated: Mon, 16-Jul-2018 5:03am CDT
Fog, Overcast
Fog, Overcast
 Wind from calm
Wind: Calm
Temperature: 73°F , 23°C
Dew Point: 73°F , 23°C
Humidity: 100%
Barometer: 29.96 inHg , 1014.6 hPa
Summary: Fog
Clouds: Overcast
Visibility: 1/4 mile , 2 km
Cloud details: Overcast 200 ft
2018/07/16 10:03 KMVN 161003Z AUTO 00000KT 1/4SM FG OVC002 23/23 A2996 RMK AO2
 
KMWA - Marion Regional, Illinois, USA
Distance from station: WSW 81mi, 131km
Updated: Mon, 16-Jul-2018 5:35am CDT
Mist, Clear
Mist, Clear
 Wind from calm
Wind: Calm
Barometer: 29.97 inHg , 1014.9 hPa
Summary: Mist
Clouds: Clear
Visibility: 3 miles , 5 km
2018/07/16 10:35 KMWA 161035Z AUTO 00000KT 3SM BR CLR A2997 RMK AO2
KM30 - Metropolis, Illinois, USA
Distance from station: SW 86mi, 139km
Updated: Mon, 16-Jul-2018 5:35am CDT
Mist, Partly cloudy
Mist, Partly cloudy
 Wind from calm
Wind: Calm
Temperature: 72°F , 22°C
Dew Point: 72°F , 22°C
Humidity: 100%
Barometer: 29.97 inHg , 1014.9 hPa
Summary: Mist
Clouds: Partly cloudy
Visibility: 4 miles , 6 km
Cloud details: Partly cloudy 500 ft
2018/07/16 10:35 KM30 161035Z AUTO 00000KT 4SM BR SCT005 22/22 A2997 RMK AO2 T02240219
 
KFTK - Fort Knox/Godman, Kentucky, USA
Distance from station: E 87mi, 140km
Updated: Mon, 16-Jul-2018 5:15am CDT
Mostly cloudy
Mostly cloudy
 Wind from SE
Wind: SE 5 mph , 7 km/h
Temperature: 72°F , 22°C
Dew Point: 72°F , 22°C
Humidity: 100%
Barometer: 29.98 inHg , 1015.2 hPa
Clouds: Mostly cloudy
Visibility: 10 miles , 16 km
Cloud details: Mostly cloudy 5500 ft
Mostly cloudy 7500 ft
2018/07/16 10:15 KFTK 161015Z AUTO 13004KT 10SM BKN055 BKN075 22/22 A2998 RMK AO2 RAE15 SLP148
KSLO - Salem/Leckrone, Illinois, USA
Distance from station: WNW 89mi, 143km
Updated: Mon, 16-Jul-2018 5:35am CDT
Fog, Overcast
Fog, Overcast
 Wind from calm
Wind: Calm
Temperature: 75°F , 24°C
Dew Point: 73°F , 23°C
Humidity: 94%
Barometer: 29.96 inHg , 1014.6 hPa
Summary: Fog
Clouds: Overcast
Visibility: 1/4 mile , 2 km
Cloud details: Overcast 300 ft
2018/07/16 10:35 KSLO 161035Z AUTO 00000KT 1/4SM FG OVC003 24/23 A2996 RMK AO2 T02350227
 
K1H2 - Effingham, Illinois, USA
Distance from station: NW 91mi, 146km
Updated: Mon, 16-Jul-2018 5:35am CDT
Mist, Overcast
Mist, Overcast
 Wind from SE
Wind: SE 3 mph , 6 km/h
Temperature: 73°F , 23°C
Dew Point: 73°F , 23°C
Humidity: 100%
Barometer: 29.98 inHg , 1015.2 hPa
Summary: Mist
Clouds: Overcast
Visibility: 1 mile , 2 km
Cloud details: Overcast 300 ft
2018/07/16 10:35 K1H2 161035Z AUTO 13003KT 1SM BR OVC003 23/23 A2998 RMK AO2 T02300230
KENL - Centralia, Illinois, USA
Distance from station: WNW 91mi, 147km
Updated: Mon, 16-Jul-2018 5:35am CDT
Fog, Overcast
Fog, Overcast
 Wind from calm
Wind: Calm
Temperature: 72°F , 22°C
Dew Point: 72°F , 22°C
Humidity: 100%
Barometer: 29.95 inHg , 1014.2 hPa
Summary: Fog
Clouds: Overcast
Visibility: 1/2 mile , 2 km
Cloud details: Overcast 200 ft
2018/07/16 10:35 KENL 161035Z AUTO 00000KT 1/2SM FG OVC002 22/22 A2995 RMK AO2 T02200220